Time;durP1;ratioP1;P1;durP2;ratioP2;P2;SDS_P1;SDS_P2;PMS_P1;PMS_P2;Temp;Humidity;BMP_temperature;BMP_pressure;BME280_temperature;BME280_humidity;BME280_pressure;Samples;Min_cycle;Max_cycle;Signal;HPM_P1;HPM_P2
2023/08/10 00:01:20;;;;;;;;;;;;;;;;;;5088745;28;19924;-79
2023/08/10 00:03:46;;;;;;;;;;;;;;;;;;5086294;28;19925;-79
2023/08/10 00:06:13;;;;;;;;;;;;;;;;;;5091578;28;19973;-79
2023/08/10 00:08:39;;;;;;;;;;;;;;;;;;5075259;28;19966;-80
2023/08/10 00:11:06;;;;;;;;;;;;;;;;;;5085681;28;19920;-80
2023/08/10 00:13:33;;;;;;;;;;;;;;;;;;5085109;28;20338;-79
2023/08/10 00:15:59;;;;;;;;;;;;;;;;;;5090128;28;19985;-80
2023/08/10 00:18:26;;;;;;;;;;;;;;;;;;5085431;28;19977;-80
2023/08/10 00:20:52;;;;;;;;;;;;;;;;;;5067899;28;20396;-79
2023/08/10 00:23:19;;;;;;;;;;;;;;;;;;5085430;28;20280;-81
2023/08/10 00:25:45;;;;;;;;;;;;;;;;;;5086605;28;19920;-79
2023/08/10 00:28:12;;;;;;;;;;;;;;;;;;5086209;28;20377;-79
2023/08/10 00:30:38;;;;;;;;;;;;;;;;;;5075333;28;19931;-79
2023/08/10 00:33:04;;;;;;;;;;;;;;;;;;5088825;28;19920;-79
2023/08/10 00:35:31;;;;;;;;;;;;;;;;;;5084165;28;19974;-78
2023/08/10 00:37:57;;;;;;;;;;;;;;;;;;5072500;28;20301;-79
2023/08/10 00:40:24;;;;;;;;;;;;;;;;;;5072912;28;20565;-80
2023/08/10 00:42:50;;;;;;;;;;;;;;;;;;5090267;28;19921;-78
2023/08/10 00:45:16;;;;;;;;;;;;;;;;;;5069832;28;19966;-79
2023/08/10 00:47:43;;;;;;;;;;;;;;;;;;5085670;28;20120;-79
2023/08/10 00:50:09;;;;;;;;;;;;;;;;;;5085053;28;19927;-79
2023/08/10 00:52:36;;;;;;;;;;;;;;;;;;5085268;28;20381;-80
2023/08/10 00:55:02;;;;;;;;;;;;;;;;;;5085865;28;20276;-82
2023/08/10 00:57:29;;;;;;;;;;;;;;;;;;5073603;28;19959;-79
2023/08/10 00:59:55;;;;;;;;;;;;;;;;;;5084664;28;20326;-79
2023/08/10 01:02:22;;;;;;;;;;;;;;;;;;5076599;28;19926;-80
2023/08/10 01:04:48;;;;;;;;;;;;;;;;;;5087199;28;19931;-79
2023/08/10 01:07:14;;;;;;;;;;;;;;;;;;5086851;28;19974;-80
2023/08/10 01:09:41;;;;;;;;;;;;;;;;;;5085686;28;19946;-80
2023/08/10 01:12:07;;;;;;;;;;;;;;;;;;5083706;28;19927;-80
2023/08/10 01:14:34;;;;;;;;;;;;;;;;;;5085862;28;19920;-81
2023/08/10 01:17:01;;;;;;;;;;;;;;;;;;5083742;28;19926;-78
2023/08/10 01:19:27;;;;;;;;;;;;;;;;;;5094207;28;19927;-80
2023/08/10 01:21:54;;;;;;;;;;;;;;;;;;5093802;28;19920;-80
2023/08/10 01:24:20;;;;;;;;;;;;;;;;;;5087266;28;19934;-79
2023/08/10 01:26:47;;;;;;;;;;;;;;;;;;5086285;28;19978;-78
2023/08/10 01:29:13;;;;;;;;;;;;;;;;;;5084733;28;19924;-79
2023/08/10 01:31:39;;;;;;;;;;;;;;;;;;5082741;28;19952;-79
2023/08/10 01:34:07;;;;;;;11.67;0.90;;;;;;;;;;5085441;28;20205;-79
2023/08/10 01:36:34;;;;;;;11.77;1.00;;;;;;;;;;5078794;28;20477;-78
2023/08/10 01:39:01;;;;;;;11.80;0.90;;;;;;;;;;5085619;28;20474;-78
2023/08/10 01:41:27;;;;;;;11.97;1.00;;;;;;;;;;5067804;28;20442;-79
2023/08/10 01:43:54;;;;;;;11.67;1.00;;;;;;;;;;5082284;28;20528;-80
2023/08/10 01:46:20;;;;;;;;;;;;;;;;;;5079507;28;20684;-79
2023/08/10 01:48:47;;;;;;;;;;;;;;;;;;5088196;28;19967;-82
2023/08/10 01:51:13;;;;;;;;;;;;;;;;;;5086184;28;20454;-80
2023/08/10 01:53:40;;;;;;;;;;;;;;;;;;5088307;28;20039;-79
2023/08/10 01:56:06;;;;;;;;;;;;;;;;;;5090860;28;19923;-80
2023/08/10 01:58:35;;;;;;;12.00;0.93;;;;;;;;;;5083076;28;20239;-82
2023/08/10 02:01:01;;;;;;;11.73;0.80;;;;;;;;;;5091102;28;20506;-80
2023/08/10 02:03:28;;;;;;;14.80;1.23;;;;;;;;;;5089774;28;20450;-80
2023/08/10 02:05:55;;;;;;;11.93;1.00;;;;;;;;;;5079990;28;20463;-80
2023/08/10 02:08:22;;;;;;;12.60;1.53;;;;;;;;;;5086647;28;20469;-79
2023/08/10 02:10:48;;;;;;;12.03;1.20;;;;;;;;;;5079175;28;20480;-79
2023/08/10 02:13:16;;;;;;;11.93;0.97;;;;;;;;;;5082494;28;20449;-78
2023/08/10 02:15:44;;;;;;;11.93;1.00;;;;;;;;;;5081627;28;20931;-80
2023/08/10 02:18:11;;;;;;;13.47;1.33;;;;;;;;;;5069156;28;20440;-79
2023/08/10 02:20:38;;;;;;;11.90;1.00;;;;;;;;;;5086038;28;20457;-78
2023/08/10 02:23:04;;;;;;;12.37;1.40;;;;;;;;;;5076109;28;20461;-79
2023/08/10 02:25:31;;;;;;;11.87;1.00;;;;;;;;;;5070372;28;20508;-79
2023/08/10 02:27:58;;;;;;;11.87;0.90;;;;;;;;;;5084807;28;20439;-80
2023/08/10 02:30:24;;;;;;;12.07;1.10;;;;;;;;;;5073777;28;20435;-81
2023/08/10 02:32:52;;;;;;;13.60;1.10;;;;;;;;;;5083658;28;20491;-81
2023/08/10 02:35:21;;;;;;;11.87;0.90;;;;;;;;;;5092122;28;20671;-80
2023/08/10 02:37:47;;;;;;;11.93;0.90;;;;;;;;;;5094265;28;20489;-81
2023/08/10 02:40:14;;;;;;;11.93;0.90;;;;;;;;;;5072274;28;20806;-78
2023/08/10 02:42:42;;;;;;;11.87;0.90;;;;;;;;;;5087549;28;20426;-81
2023/08/10 02:45:09;;;;;;;12.33;1.10;;;;;;;;;;5086446;28;20501;-80
2023/08/10 02:47:36;;;;;;;17.53;3.40;;;;;;;;;;5084242;28;20436;-80
2023/08/10 02:50:09;;;;;;;11.77;1.00;;;;;;;;;;5076996;28;20449;-79
2023/08/10 02:52:36;;;;;;;12.60;1.30;;;;;;;;;;5086425;28;20557;-79
2023/08/10 02:55:03;;;;;;;13.10;1.10;;;;;;;;;;5087769;28;20803;-80
2023/08/10 02:57:30;;;;;;;11.93;0.93;;;;;;;;;;5086631;28;20469;-80
2023/08/10 02:59:57;;;;;;;11.93;0.90;;;;;;;;;;5087816;28;20442;-79
2023/08/10 03:02:24;;;;;;;11.80;1.10;;;;;;;;;;5069067;28;20900;-79
2023/08/10 03:04:51;;;;;;;11.93;0.90;;;;;;;;;;5090238;28;20482;-78
2023/08/10 03:07:19;;;;;;;11.87;0.90;;;;;;;;;;5090091;28;20497;-80
2023/08/10 03:09:46;;;;;;;12.17;1.00;;;;;;;;;;5087701;28;20425;-79
2023/08/10 03:12:18;;;;;;;12.00;0.90;;;;;;;;;;5087645;28;20465;-79
2023/08/10 03:14:46;;;;;;;12.00;1.00;;;;;;;;;;5082695;28;20934;-79
2023/08/10 03:17:13;;;;;;;11.83;0.90;;;;;;;;;;5088833;28;20866;-80
2023/08/10 03:19:41;;;;;;;11.87;0.90;;;;;;;;;;5068219;28;20441;-81
2023/08/10 03:22:08;;;;;;;11.93;0.90;;;;;;;;;;5104992;28;20934;-79
2023/08/10 03:24:37;;;;;;;11.97;0.90;;;;;;;;;;5069156;28;20453;-79
2023/08/10 03:27:04;;;;;;;12.30;1.20;;;;;;;;;;5081809;28;20515;-79
2023/08/10 03:29:31;;;;;;;12.00;1.00;;;;;;;;;;5083623;28;20457;-79
2023/08/10 03:31:57;;;;;;;12.50;1.30;;;;;;;;;;5085286;28;20442;-79
2023/08/10 03:34:24;;;;;;;12.50;1.10;;;;;;;;;;5082710;28;20444;-80
2023/08/10 03:36:53;;;;;;;12.10;1.00;;;;;;;;;;5088022;28;20501;-79
2023/08/10 03:39:21;;;;;;;11.97;0.90;;;;;;;;;;5088422;28;20446;-79
2023/08/10 03:41:49;;;;;;;11.97;0.90;;;;;;;;;;5084387;28;20450;-80
2023/08/10 03:44:16;;;;;;;11.93;0.90;;;;;;;;;;5088657;28;20455;-80
2023/08/10 03:46:43;;;;;;;12.23;1.07;;;;;;;;;;5087772;28;20470;-80
2023/08/10 03:49:10;;;;;;;13.53;1.67;;;;;;;;;;5084248;28;20462;-79
2023/08/10 03:51:38;;;;;;;11.97;0.90;;;;;;;;;;5074293;28;20450;-79
2023/08/10 03:54:05;;;;;;;11.97;1.00;;;;;;;;;;5082279;28;20550;-79
2023/08/10 03:56:32;;;;;;;11.97;1.00;;;;;;;;;;5086947;28;20469;-79
2023/08/10 03:59:00;;;;;;;12.30;1.20;;;;;;;;;;5092256;28;20848;-79
2023/08/10 04:01:27;;;;;;;12.03;1.00;;;;;;;;;;5081945;28;20839;-78
2023/08/10 04:03:53;;;;;;;11.87;1.00;;;;;;;;;;5086713;28;20443;-79
2023/08/10 04:06:22;;;;;;;11.93;0.80;;;;;;;;;;5082931;28;20479;-79
2023/08/10 04:08:48;;;;;;;12.40;1.53;;;;;;;;;;5068804;28;20559;-80
2023/08/10 04:11:17;;;;;;;11.97;0.90;;;;;;;;;;5073388;28;20435;-78
2023/08/10 04:13:44;;;;;;;12.17;0.97;;;;;;;;;;5066130;28;20449;-79
2023/08/10 04:16:15;;;;;;;12.03;0.90;;;;;;;;;;5081513;28;20534;-79
2023/08/10 04:18:42;;;;;;;12.03;0.97;;;;;;;;;;5085697;28;20468;-80
2023/08/10 04:21:08;;;;;;;11.93;0.90;;;;;;;;;;5078125;28;20471;-78
2023/08/10 04:23:40;;;;;;;11.97;0.80;;;;;;;;;;5089358;28;20475;-79
2023/08/10 04:26:07;;;;;;;11.93;1.00;;;;;;;;;;5084752;28;20476;-79
2023/08/10 04:28:33;;;;;;;11.93;0.80;;;;;;;;;;5072954;28;20523;-81
2023/08/10 04:31:00;;;;;;;12.50;1.40;;;;;;;;;;5070255;28;20534;-80
2023/08/10 04:33:28;;;;;;;12.07;1.10;;;;;;;;;;5085407;28;20509;-78
2023/08/10 04:35:55;;;;;;;12.23;1.57;;;;;;;;;;5083713;28;20457;-80
2023/08/10 04:38:22;;;;;;;11.93;0.90;;;;;;;;;;5084930;28;20448;-80
2023/08/10 04:40:49;;;;;;;12.43;1.20;;;;;;;;;;5081227;28;20432;-79
2023/08/10 04:43:15;;;;;;;11.97;0.90;;;;;;;;;;5086175;28;20459;-81
2023/08/10 04:45:42;;;;;;;12.10;1.17;;;;;;;;;;5082562;28;20561;-80
2023/08/10 04:48:10;;;;;;;12.47;1.30;;;;;;;;;;5072629;28;20454;-80
2023/08/10 04:50:38;;;;;;;11.97;1.10;;;;;;;;;;5088272;28;20428;-80
2023/08/10 04:53:04;;;;;;;11.97;1.00;;;;;;;;;;5083430;28;20456;-80
2023/08/10 04:55:31;;;;;;;12.80;1.97;;;;;;;;;;5083528;28;20556;-80
2023/08/10 04:57:58;;;;;;;12.27;1.13;;;;;;;;;;5084098;28;20444;-80
2023/08/10 05:00:24;;;;;;;12.13;1.37;;;;;;;;;;5086879;28;20537;-79
2023/08/10 05:02:51;;;;;;;12.07;1.10;;;;;;;;;;5083042;28;20464;-79
2023/08/10 05:05:18;;;;;;;11.97;0.90;;;;;;;;;;5085028;28;20481;-79
2023/08/10 05:07:47;;;;;;;11.97;0.90;;;;;;;;;;5079947;28;20476;-80
2023/08/10 05:10:14;;;;;;;11.97;1.00;;;;;;;;;;5068213;28;20435;-79
2023/08/10 05:12:41;;;;;;;12.00;1.00;;;;;;;;;;5084839;28;20951;-80
2023/08/10 05:15:09;;;;;;;12.33;1.47;;;;;;;;;;5081072;28;20832;-83
2023/08/10 05:17:41;;;;;;;11.97;0.90;;;;;;;;;;5081974;28;20492;-83
2023/08/10 05:20:11;;;;;;;11.93;0.90;;;;;;;;;;5068849;28;20523;-83
2023/08/10 05:22:40;;;;;;;12.97;1.83;;;;;;;;;;5088373;28;20477;-83
2023/08/10 05:25:08;;;;;;;12.00;1.00;;;;;;;;;;5086216;28;20438;-84
2023/08/10 05:27:35;;;;;;;12.10;1.20;;;;;;;;;;5082626;28;20514;-85
2023/08/10 05:30:02;;;;;;;11.97;0.90;;;;;;;;;;5079928;28;20433;-83
2023/08/10 05:32:28;;;;;;;11.97;0.90;;;;;;;;;;5079191;28;20419;-83
2023/08/10 05:34:55;;;;;;;12.03;1.00;;;;;;;;;;5082267;28;20510;-84
2023/08/10 05:37:22;;;;;;;12.03;0.90;;;;;;;;;;5086582;28;20460;-82
2023/08/10 05:39:48;;;;;;;11.93;1.10;;;;;;;;;;5082809;28;20420;-84
2023/08/10 05:42:16;;;;;;;12.03;1.10;;;;;;;;;;5082468;28;20539;-84
2023/08/10 05:44:43;;;;;;;12.07;1.00;;;;;;;;;;5084658;28;20453;-84
2023/08/10 05:47:09;;;;;;;12.03;0.90;;;;;;;;;;5086362;28;20487;-83
2023/08/10 05:49:36;;;;;;;12.03;1.03;;;;;;;;;;5064624;28;20448;-84
2023/08/10 05:52:03;;;;;;;12.03;1.00;;;;;;;;;;5086017;28;20476;-83
2023/08/10 05:54:31;;;;;;;12.13;1.10;;;;;;;;;;5071242;28;20659;-83
2023/08/10 05:56:57;;;;;;;12.03;0.90;;;;;;;;;;5084250;28;20450;-84
2023/08/10 05:59:27;;;;;;;11.87;0.90;;;;;;;;;;5082352;28;20845;-84
2023/08/10 06:01:54;;;;;;;12.40;1.57;;;;;;;;;;5082873;28;20498;-84
2023/08/10 06:04:21;;;;;;;12.03;1.00;;;;;;;;;;5073947;28;20436;-84
2023/08/10 06:06:47;;;;;;;12.23;1.37;;;;;;;;;;5086910;28;20551;-84
2023/08/10 06:09:14;;;;;;;11.93;1.03;;;;;;;;;;5081862;28;20494;-84
2023/08/10 06:11:41;;;;;;;11.93;0.93;;;;;;;;;;5086151;28;20472;-83
2023/08/10 06:14:15;;;;;;;12.53;1.20;;;;;;;;;;5090013;28;20454;-84
2023/08/10 06:16:43;;;;;;;12.20;1.33;;;;;;;;;;5086524;28;20439;-84
2023/08/10 06:19:10;;;;;;;11.97;0.97;;;;;;;;;;5068455;28;20858;-83
2023/08/10 06:21:37;;;;;;;12.07;1.00;;;;;;;;;;5084962;28;20497;-83
2023/08/10 06:24:06;;;;;;;11.87;1.10;;;;;;;;;;5086716;28;20544;-83
2023/08/10 06:26:34;;;;;;;13.63;1.70;;;;;;;;;;5087740;28;20465;-84
2023/08/10 06:29:02;;;;;;;12.03;1.10;;;;;;;;;;5079723;28;20441;-84
2023/08/10 06:31:29;;;;;;;12.17;1.23;;;;;;;;;;5067923;28;20441;-84
2023/08/10 06:33:57;;;;;;;13.03;1.50;;;;;;;;;;5065221;28;20489;-84
2023/08/10 06:36:24;;;;;;;12.13;1.10;;;;;;;;;;5082711;28;20427;-83
2023/08/10 06:38:52;;;;;;;12.00;0.97;;;;;;;;;;5083981;28;20457;-83
2023/08/10 06:41:19;;;;;;;12.00;1.00;;;;;;;;;;5079422;28;20430;-84
2023/08/10 06:43:45;;;;;;;11.97;1.00;;;;;;;;;;5065227;28;20445;-83
2023/08/10 06:46:12;;;;;;;12.60;1.40;;;;;;;;;;5081659;28;20505;-83
2023/08/10 06:48:38;;;;;;;12.53;1.10;;;;;;;;;;5083293;28;20608;-83
2023/08/10 06:51:07;;;;;;;12.10;1.30;;;;;;;;;;5082208;28;20933;-84
2023/08/10 06:53:33;;;;;;;12.03;1.13;;;;;;;;;;5084757;28;20479;-82
2023/08/10 06:56:00;;;;;;;12.03;1.00;;;;;;;;;;5086390;28;20473;-82
2023/08/10 06:58:28;;;;;;;12.13;1.13;;;;;;;;;;5080387;28;20438;-82
2023/08/10 07:00:57;;;;;;;12.17;1.10;;;;;;;;;;5088621;28;20873;-82
2023/08/10 07:03:24;;;;;;;13.37;1.20;;;;;;;;;;5089255;28;20444;-84
2023/08/10 07:05:51;;;;;;;11.97;0.90;;;;;;;;;;5089239;28;20429;-83
2023/08/10 07:08:20;;;;;;;11.93;1.00;;;;;;;;;;5090997;28;20987;-82
2023/08/10 07:10:46;;;;;;;12.30;1.47;;;;;;;;;;5068148;28;20457;-82
2023/08/10 07:13:13;;;;;;;12.27;1.30;;;;;;;;;;5086516;28;20565;-81
2023/08/10 07:15:39;;;;;;;12.60;1.53;;;;;;;;;;5082958;28;20995;-82
2023/08/10 07:18:06;;;;;;;12.57;1.27;;;;;;;;;;5090563;28;20523;-82
2023/08/10 07:20:33;;;;;;;12.50;1.03;;;;;;;;;;5089096;28;20949;-82
2023/08/10 07:23:01;;;;;;;13.23;1.00;;;;;;;;;;5067460;28;20459;-82
2023/08/10 07:25:31;;;;;;;12.07;1.07;;;;;;;;;;5086989;28;20437;-83
2023/08/10 07:28:31;;;;;;;12.30;1.20;;;;;;;;;;5106821;28;20451;-80
2023/08/10 07:31:06;;;;;;;14.00;2.27;;;;;;;;;;5093645;28;20426;-80
2023/08/10 07:33:32;;;;;;;11.97;1.10;;;;;;;;;;5087518;28;20944;-82
2023/08/10 07:35:59;;;;;;;12.13;1.17;;;;;;;;;;5086355;28;20968;-83
2023/08/10 07:38:27;;;;;;;12.90;1.20;;;;;;;;;;5083442;28;20959;-82
2023/08/10 07:40:55;;;;;;;11.97;1.00;;;;;;;;;;5098199;28;20603;-82
2023/08/10 07:43:25;;;;;;;12.03;1.00;;;;;;;;;;5089938;28;20507;-83
2023/08/10 07:45:51;;;;;;;11.87;1.00;;;;;;;;;;5089325;28;20428;-81
2023/08/10 07:48:18;;;;;;;12.07;1.00;;;;;;;;;;5086850;28;20514;-83
2023/08/10 07:50:46;;;;;;;13.47;1.20;;;;;;;;;;5085241;28;20518;-83
2023/08/10 07:53:13;;;;;;;12.00;1.00;;;;;;;;;;5098294;28;20477;-80
2023/08/10 07:55:40;;;;;;;11.93;0.90;;;;;;;;;;5091425;28;20526;-82
2023/08/10 07:58:08;;;;;;;11.87;0.90;;;;;;;;;;5093189;28;20470;-80
2023/08/10 08:00:38;;;;;;;12.00;1.03;;;;;;;;;;5087578;28;20453;-82
2023/08/10 08:03:05;;;;;;;11.97;1.00;;;;;;;;;;5090882;28;20414;-81
2023/08/10 08:05:37;;;;;;;11.97;1.00;;;;;;;;;;5075684;28;20846;-82
2023/08/10 08:08:04;;;;;;;12.03;1.10;;;;;;;;;;5087761;28;20482;-82
2023/08/10 08:10:31;;;;;;;12.03;1.10;;;;;;;;;;5090740;28;20546;-82
2023/08/10 08:12:59;;;;;;;12.00;1.00;;;;;;;;;;5089897;28;20480;-82
2023/08/10 08:15:26;;;;;;;11.97;1.00;;;;;;;;;;5081776;28;20446;-81
2023/08/10 08:18:12;;;;;;;11.93;1.03;;;;;;;;;;5082841;28;20454;-82
2023/08/10 08:20:38;;;;;;;11.93;0.93;;;;;;;;;;5085508;28;20453;-82
2023/08/10 08:23:05;;;;;;;12.03;1.00;;;;;;;;;;5083642;28;20480;-82
2023/08/10 08:25:31;;;;;;;11.87;1.00;;;;;;;;;;5069663;28;20943;-83
2023/08/10 08:27:58;;;;;;;11.87;0.97;;;;;;;;;;5088039;28;20564;-85
2023/08/10 08:30:26;;;;;;;11.97;1.00;;;;;;;;;;5072838;28;20441;-84
2023/08/10 08:32:54;;;;;;;12.03;1.00;;;;;;;;;;5082772;28;20521;-83
2023/08/10 08:35:24;;;;;;;11.97;1.00;;;;;;;;;;5085964;28;20544;-84
2023/08/10 08:37:51;;;;;;;12.07;1.00;;;;;;;;;;5089460;28;20545;-84
2023/08/10 08:40:18;;;;;;;12.10;1.23;;;;;;;;;;5091141;28;20472;-84
2023/08/10 08:42:47;;;;;;;12.03;1.20;;;;;;;;;;5084576;28;20416;-84
2023/08/10 08:45:14;;;;;;;12.57;1.63;;;;;;;;;;5084308;28;20509;-84
2023/08/10 08:47:42;;;;;;;12.10;1.10;;;;;;;;;;5084711;28;20929;-84
2023/08/10 08:50:11;;;;;;;12.00;1.00;;;;;;;;;;5085073;28;20809;-84
2023/08/10 08:52:38;;;;;;;11.87;0.90;;;;;;;;;;5081953;28;20445;-84
2023/08/10 08:55:07;;;;;;;12.03;1.03;;;;;;;;;;5084305;28;20409;-83
2023/08/10 08:57:33;;;;;;;11.90;0.97;;;;;;;;;;5090115;28;20398;-82
2023/08/10 09:00:01;;;;;;;11.90;0.90;;;;;;;;;;5081792;28;20434;-84
2023/08/10 09:02:28;;;;;;;12.43;1.17;;;;;;;;;;5082688;28;20825;-83
2023/08/10 09:04:59;;;;;;;11.87;0.90;;;;;;;;;;5082460;28;20439;-84
2023/08/10 09:07:27;;;;;;;12.50;1.10;;;;;;;;;;5082865;28;20501;-82
2023/08/10 09:09:53;;;;;;;11.93;1.00;;;;;;;;;;5076497;28;20518;-84
2023/08/10 09:12:30;;;;;;;12.03;1.00;;;;;;;;;;5073715;28;20977;-82
2023/08/10 09:15:03;;;;;;;12.10;1.07;;;;;;;;;;5074322;28;20937;-81
2023/08/10 09:17:30;;;;;;;11.87;0.90;;;;;;;;;;5063520;28;21223;-82
2023/08/10 09:19:58;;;;;;;13.10;1.43;;;;;;;;;;5066873;28;20436;-81
2023/08/10 09:22:30;;;;;;;11.97;0.93;;;;;;;;;;5086089;28;20456;-81
2023/08/10 09:24:56;;;;;;;11.97;1.00;;;;;;;;;;5083319;28;20514;-81
2023/08/10 09:27:23;;;;;;;11.97;0.90;;;;;;;;;;5085530;28;20504;-81
2023/08/10 09:29:49;;;;;;;12.03;1.00;;;;;;;;;;5079413;28;20436;-82
2023/08/10 09:32:18;;;;;;;12.17;1.10;;;;;;;;;;5081570;28;20777;-82
2023/08/10 09:34:45;;;;;;;12.03;1.00;;;;;;;;;;5079726;28;20433;-81
2023/08/10 09:37:12;;;;;;;12.07;1.10;;;;;;;;;;5085756;28;20488;-81
2023/08/10 09:39:41;;;;;;;11.97;0.90;;;;;;;;;;5066747;28;20435;-81
2023/08/10 09:42:08;;;;;;;13.10;1.00;;;;;;;;;;5087727;28;20409;-81
2023/08/10 09:44:42;;;;;;;11.93;1.00;;;;;;;;;;5086887;28;20416;-81
2023/08/10 09:47:09;;;;;;;11.97;0.90;;;;;;;;;;5086768;28;20468;-80
2023/08/10 09:49:36;;;;;;;12.30;0.93;;;;;;;;;;5082692;28;20864;-80
2023/08/10 09:52:02;;;;;;;12.10;0.90;;;;;;;;;;5081989;28;20487;-81
2023/08/10 09:54:30;;;;;;;11.93;0.90;;;;;;;;;;5086542;28;20426;-82
2023/08/10 09:56:58;;;;;;;11.90;0.90;;;;;;;;;;5083868;28;20445;-80
2023/08/10 09:59:26;;;;;;;11.93;0.90;;;;;;;;;;5081012;28;20930;-80
2023/08/10 10:01:53;;;;;;;12.03;1.00;;;;;;;;;;5087215;28;20445;-80
2023/08/10 10:04:21;;;;;;;12.03;1.00;;;;;;;;;;5088527;28;20993;-80
2023/08/10 10:06:48;;;;;;;12.13;1.30;;;;;;;;;;5078998;28;20426;-81
2023/08/10 10:09:15;;;;;;;11.97;0.90;;;;;;;;;;5083963;28;20463;-80
2023/08/10 10:11:42;;;;;;;11.93;0.80;;;;;;;;;;5082691;28;20484;-80
2023/08/10 10:14:10;;;;;;;12.07;1.03;;;;;;;;;;5082136;28;20434;-81
2023/08/10 10:16:37;;;;;;;12.13;1.10;;;;;;;;;;5087058;28;20435;-81
2023/08/10 10:19:04;;;;;;;11.97;0.90;;;;;;;;;;5080516;28;20434;-81
2023/08/10 10:21:31;;;;;;;12.27;1.13;;;;;;;;;;5082698;28;20454;-81
2023/08/10 10:24:01;;;;;;;12.03;1.07;;;;;;;;;;5082091;28;20454;-80
2023/08/10 10:26:27;;;;;;;12.00;1.00;;;;;;;;;;5086528;28;20535;-81
2023/08/10 10:29:07;;;;;;;12.80;1.53;;;;;;;;;;5087509;28;20482;-80
2023/08/10 10:31:35;;;;;;;12.73;1.60;;;;;;;;;;5086338;28;20438;-80
2023/08/10 10:34:04;;;;;;;12.47;1.33;;;;;;;;;;5072768;28;20446;-80
2023/08/10 10:36:31;;;;;;;12.80;1.20;;;;;;;;;;5078434;28;20522;-80
2023/08/10 10:39:04;;;;;;;11.97;1.00;;;;;;;;;;5082909;28;21182;-79
2023/08/10 10:41:31;;;;;;;12.30;1.20;;;;;;;;;;5086653;28;20446;-80
2023/08/10 10:43:59;;;;;;;12.03;1.13;;;;;;;;;;5089269;28;20446;-80
2023/08/10 10:46:38;;;;;;;13.53;1.27;;;;;;;;;;5081166;28;20462;-79
2023/08/10 10:49:06;;;;;;;12.07;1.20;;;;;;;;;;5088165;28;20477;-80
2023/08/10 10:51:42;;;;;;;12.07;1.10;;;;;;;;;;5082376;28;20438;-81
2023/08/10 10:54:11;;;;;;;12.00;1.20;;;;;;;;;;5088208;28;20469;-78
2023/08/10 10:56:38;;;;;;;12.07;1.17;;;;;;;;;;5085068;28;20500;-79
2023/08/10 10:59:06;;;;;;;11.87;1.17;;;;;;;;;;5070010;28;20942;-81
2023/08/10 11:01:32;;;;;;;12.27;1.30;;;;;;;;;;5086602;28;20429;-79
2023/08/10 11:04:00;;;;;;;11.97;1.00;;;;;;;;;;5087191;28;20459;-80
2023/08/10 11:06:27;;;;;;;12.03;1.13;;;;;;;;;;5084351;28;20431;-79
2023/08/10 11:08:55;;;;;;;12.47;1.10;;;;;;;;;;5085468;28;20474;-81
2023/08/10 11:11:22;;;;;;;12.00;0.90;;;;;;;;;;5087218;28;20445;-80
2023/08/10 11:13:49;;;;;;;12.17;1.30;;;;;;;;;;5084231;28;20521;-80
2023/08/10 11:16:15;;;;;;;12.47;1.03;;;;;;;;;;5084630;28;20931;-80
2023/08/10 11:18:42;;;;;;;14.70;1.20;;;;;;;;;;5085274;28;20912;-81
2023/08/10 11:21:11;;;;;;;12.20;0.97;;;;;;;;;;5087155;28;20466;-80
2023/08/10 11:23:39;;;;;;;12.30;1.10;;;;;;;;;;5092206;28;20545;-80
2023/08/10 11:26:07;;;;;;;12.03;1.00;;;;;;;;;;5081921;28;20439;-80
2023/08/10 11:28:34;;;;;;;11.77;0.80;;;;;;;;;;5090059;28;20474;-79
2023/08/10 11:31:01;;;;;;;12.43;1.23;;;;;;;;;;5093272;28;20466;-79
2023/08/10 11:33:29;;;;;;;11.93;1.00;;;;;;;;;;5089278;28;20519;-80
2023/08/10 11:35:58;;;;;;;11.97;1.23;;;;;;;;;;5087290;28;20497;-80
2023/08/10 11:38:26;;;;;;;11.87;0.90;;;;;;;;;;5072816;28;20516;-80
2023/08/10 11:40:55;;;;;;;12.70;1.00;;;;;;;;;;5085289;28;20812;-80
2023/08/10 11:43:25;;;;;;;12.00;1.33;;;;;;;;;;5087831;28;20791;-80
2023/08/10 11:45:53;;;;;;;12.10;1.10;;;;;;;;;;5073270;28;20871;-80
2023/08/10 11:48:19;;;;;;;11.90;0.80;;;;;;;;;;5083437;28;20496;-80
2023/08/10 11:50:46;;;;;;;12.50;1.47;;;;;;;;;;5085658;28;20435;-81
2023/08/10 11:53:15;;;;;;;12.23;1.00;;;;;;;;;;5083307;28;20480;-80
2023/08/10 11:55:43;;;;;;;11.87;0.80;;;;;;;;;;5092143;28;20521;-81
2023/08/10 11:58:13;;;;;;;11.93;0.90;;;;;;;;;;5090456;28;20430;-81
2023/08/10 12:00:42;;;;;;;11.93;0.90;;;;;;;;;;5082878;28;20440;-80
2023/08/10 12:03:12;;;;;;;11.83;0.90;;;;;;;;;;5071491;28;20451;-80
2023/08/10 12:05:43;;;;;;;11.77;0.80;;;;;;;;;;5087957;28;20434;-79
2023/08/10 12:08:11;;;;;;;11.93;1.10;;;;;;;;;;5083198;28;20557;-80
2023/08/10 12:10:39;;;;;;;12.07;1.17;;;;;;;;;;5073798;28;20439;-79
2023/08/10 12:13:08;;;;;;;11.80;0.87;;;;;;;;;;5082279;28;20865;-79
2023/08/10 12:15:37;;;;;;;12.10;1.10;;;;;;;;;;5083760;28;20430;-79
2023/08/10 12:18:04;;;;;;;11.77;0.90;;;;;;;;;;5086619;28;20430;-79
2023/08/10 12:20:31;;;;;;;11.77;0.80;;;;;;;;;;5081230;28;20497;-79
2023/08/10 12:22:59;;;;;;;12.10;1.00;;;;;;;;;;5084169;28;20462;-80
2023/08/10 12:25:25;;;;;;;11.83;0.90;;;;;;;;;;5084299;28;20493;-80
2023/08/10 12:27:52;;;;;;;11.90;1.00;;;;;;;;;;5080047;28;20494;-80
2023/08/10 12:30:21;;;;;;;11.73;0.87;;;;;;;;;;5090477;28;20492;-80
2023/08/10 12:32:48;;;;;;;11.90;0.97;;;;;;;;;;5088717;28;20880;-79
2023/08/10 12:35:15;;;;;;;12.00;1.10;;;;;;;;;;5083810;28;20445;-80
2023/08/10 12:37:41;;;;;;;12.07;1.00;;;;;;;;;;5074377;28;20990;-79
2023/08/10 12:40:10;;;;;;;12.50;0.90;;;;;;;;;;5068442;28;20990;-80
2023/08/10 12:42:38;;;;;;;11.97;1.10;;;;;;;;;;5089093;28;20487;-80
2023/08/10 12:45:05;;;;;;;14.60;1.30;;;;;;;;;;5086347;28;20904;-82
2023/08/10 12:47:33;;;;;;;11.97;1.00;;;;;;;;;;5081480;28;20493;-80
2023/08/10 12:50:00;;;;;;;11.87;0.90;;;;;;;;;;5086430;28;20935;-80
2023/08/10 12:52:27;;;;;;;11.87;0.80;;;;;;;;;;5082495;28;20888;-80
2023/08/10 12:54:53;;;;;;;12.13;1.00;;;;;;;;;;5079797;28;20431;-80
2023/08/10 12:57:20;;;;;;;11.93;0.80;;;;;;;;;;5083894;28;20430;-80
2023/08/10 12:59:48;;;;;;;12.77;1.03;;;;;;;;;;5084582;28;20431;-81
2023/08/10 13:02:15;;;;;;;12.03;1.03;;;;;;;;;;5080206;28;20958;-80
2023/08/10 13:05:00;;;;;;;11.97;1.20;;;;;;;;;;5073646;28;20790;-82
2023/08/10 13:07:27;;;;;;;12.30;1.10;;;;;;;;;;5080961;28;20469;-80
2023/08/10 13:09:54;;;;;;;11.83;0.90;;;;;;;;;;5085696;28;20460;-81
2023/08/10 13:12:21;;;;;;;12.10;1.00;;;;;;;;;;5086092;28;20434;-81
2023/08/10 13:14:48;;;;;;;11.70;0.90;;;;;;;;;;5081386;28;20438;-79
2023/08/10 13:17:14;;;;;;;11.83;0.80;;;;;;;;;;5087027;28;20453;-80
2023/08/10 13:19:41;;;;;;;12.23;1.03;;;;;;;;;;5083822;28;20453;-81
2023/08/10 13:22:10;;;;;;;11.97;1.00;;;;;;;;;;5083607;28;20438;-79
2023/08/10 13:24:37;;;;;;;11.93;0.80;;;;;;;;;;5083329;28;20497;-80
2023/08/10 13:27:04;;;;;;;12.40;0.90;;;;;;;;;;5084299;28;20440;-79
2023/08/10 13:29:31;;;;;;;12.10;1.00;;;;;;;;;;5088886;28;20494;-81
2023/08/10 13:31:58;;;;;;;11.93;0.80;;;;;;;;;;5070149;28;20949;-80
2023/08/10 13:34:25;;;;;;;12.10;1.20;;;;;;;;;;5082945;28;20425;-82
2023/08/10 13:36:52;;;;;;;12.03;0.90;;;;;;;;;;5084226;28;20798;-79
2023/08/10 13:39:23;;;;;;;11.97;0.80;;;;;;;;;;5083433;28;20800;-80
2023/08/10 13:41:51;;;;;;;12.90;1.43;;;;;;;;;;5065263;28;20439;-79
2023/08/10 13:44:18;;;;;;;12.70;1.20;;;;;;;;;;5067859;28;20461;-79
2023/08/10 13:46:45;;;;;;;12.03;0.90;;;;;;;;;;5080561;28;20437;-81
2023/08/10 13:49:12;;;;;;;12.07;0.90;;;;;;;;;;5080462;28;20473;-81
2023/08/10 13:51:39;;;;;;;12.27;1.40;;;;;;;;;;5067786;28;20811;-81
2023/08/10 13:54:06;;;;;;;11.97;0.80;;;;;;;;;;5080149;28;20453;-81
2023/08/10 13:56:47;;;;;;;11.97;0.90;;;;;;;;;;5079712;28;21281;-79
2023/08/10 13:59:15;;;;;;;12.23;0.90;;;;;;;;;;5080141;28;20458;-80
2023/08/10 14:01:42;;;;;;;11.97;0.90;;;;;;;;;;5088311;28;20930;-78
2023/08/10 14:04:10;;;;;;;12.10;1.00;;;;;;;;;;5089797;28;20450;-82
2023/08/10 14:06:37;;;;;;;12.07;1.00;;;;;;;;;;5082071;28;20915;-80
2023/08/10 14:09:04;;;;;;;12.03;1.00;;;;;;;;;;5078463;28;20480;-80
2023/08/10 14:11:30;;;;;;;11.97;0.80;;;;;;;;;;5082099;28;20437;-80
2023/08/10 14:13:57;;;;;;;11.97;0.80;;;;;;;;;;5085309;28;21394;-80
2023/08/10 14:16:25;;;;;;;12.03;0.83;;;;;;;;;;5078129;28;20430;-80
2023/08/10 14:18:52;;;;;;;12.27;1.63;;;;;;;;;;5088644;28;20499;-78
2023/08/10 14:21:20;;;;;;;11.93;0.80;;;;;;;;;;5078349;28;20457;-79
2023/08/10 14:23:48;;;;;;;11.93;0.90;;;;;;;;;;5085884;28;20978;-79
2023/08/10 14:26:15;;;;;;;12.10;1.00;;;;;;;;;;5082403;28;20426;-79
2023/08/10 14:28:41;;;;;;;11.97;0.83;;;;;;;;;;5082613;28;20520;-80
2023/08/10 14:31:08;;;;;;;12.07;1.00;;;;;;;;;;5083955;28;20524;-80
2023/08/10 14:33:36;;;;;;;12.50;1.13;;;;;;;;;;5083728;28;20983;-81
2023/08/10 14:36:04;;;;;;;12.23;0.90;;;;;;;;;;5082850;28;20915;-79
2023/08/10 14:38:33;;;;;;;12.30;1.00;;;;;;;;;;5083533;28;20470;-80
2023/08/10 14:41:09;;;;;;;11.93;0.87;;;;;;;;;;5082510;28;20430;-81
2023/08/10 14:43:35;;;;;;;12.00;1.00;;;;;;;;;;5067859;28;20499;-80
2023/08/10 14:46:02;;;;;;;11.93;0.90;;;;;;;;;;5086953;28;20965;-80